Aviation Digital Data Service (ADDS)

Output produced by METARs form (1549 UTC 04 August 2015)
found at http://aviationweather.gov/adds/metars/
 
KMPV 041120Z 0412/0512 20004KT P6SM VCSH BKN100 
     FM041300 21006KT P6SM VCSH BKN040 BKN110 
     FM041800 23007KT 5SM +SHRA BKN060 
     FM050000 25006KT P6SM VCSH BKN060 
     FM050300 27010KT P6SM BKN070 OVC100